MHZ weather

RAF Mildenhall
Mildenhall, England, United Kingdom

Public forecast

Using degrees Celsius for public forecast. Weather courtesy of forecast.io.

METAR (pilot weather report)

Retrieved 2019/03/26 23:56 UTC (7 minutes ago):

EGUN 262356Z AUTO 23004KT 9999 CLR 05/05 M RMK AO2 SLPNO T00460046 10104 20040 401191006 .

TAF (pilot weather forecast)

Retrieved 2019/03/26 20:06 UTC (4 hours ago):

TAF EGUN 262001Z 2620/2802 28006KT 9999 BKN030 QNH3048INS BECMG 2707/2708 30009KT 9999 BKN020 QNH3053INS WND 30006KT AFT 2717 TX10/2715Z TN05/2705Z